sensor_id;sensor_type;location;lat;lon;timestamp;P1;durP1;ratioP1;P2;durP2;ratioP2
83732;SDS011;73710;49.968;8.338;2024-02-15T05:06:45;8.77;;;3.67;;
83732;SDS011;73710;49.968;8.338;2024-02-15T05:09:10;7.27;;;4.00;;
83732;SDS011;73710;49.968;8.338;2024-02-15T05:11:37;6.85;;;3.35;;
83732;SDS011;73710;49.968;8.338;2024-02-15T05:14:06;3.80;;;2.65;;
83732;SDS011;73710;49.968;8.338;2024-02-15T05:16:34;6.72;;;3.22;;
83732;SDS011;73710;49.968;8.338;2024-02-15T05:19:00;4.53;;;2.95;;
83732;SDS011;73710;49.968;8.338;2024-02-15T05:21:25;4.80;;;2.88;;
83732;SDS011;73710;49.968;8.338;2024-02-15T05:23:51;4.65;;;3.10;;
83732;SDS011;73710;49.968;8.338;2024-02-15T05:26:17;4.18;;;3.25;;
83732;SDS011;73710;49.968;8.338;2024-02-15T05:28:50;8.73;;;3.97;;
83732;SDS011;73710;49.968;8.338;2024-02-15T05:31:20;6.28;;;3.72;;
83732;SDS011;73710;49.968;8.338;2024-02-15T05:33:48;4.03;;;2.95;;
83732;SDS011;73710;49.968;8.338;2024-02-15T05:36:15;5.18;;;3.08;;
83732;SDS011;73710;49.968;8.338;2024-02-15T05:38:42;5.40;;;3.20;;
83732;SDS011;73710;49.968;8.338;2024-02-15T05:41:11;5.32;;;3.45;;
83732;SDS011;73710;49.968;8.338;2024-02-15T05:43:36;6.53;;;3.80;;
83732;SDS011;73710;49.968;8.338;2024-02-15T05:46:03;11.35;;;3.83;;
83732;SDS011;73710;49.968;8.338;2024-02-15T05:48:29;4.80;;;3.13;;
83732;SDS011;73710;49.968;8.338;2024-02-15T05:50:55;4.25;;;2.85;;
83732;SDS011;73710;49.968;8.338;2024-02-15T05:53:22;4.70;;;2.60;;
83732;SDS011;73710;49.968;8.338;2024-02-15T05:55:48;7.50;;;3.42;;
83732;SDS011;73710;49.968;8.338;2024-02-15T05:58:15;5.55;;;3.50;;
83732;SDS011;73710;49.968;8.338;2024-02-15T06:00:40;5.35;;;3.42;;
83732;SDS011;73710;49.968;8.338;2024-02-15T06:03:06;5.68;;;2.97;;
83732;SDS011;73710;49.968;8.338;2024-02-15T06:05:34;7.47;;;3.63;;
83732;SDS011;73710;49.968;8.338;2024-02-15T06:07:59;5.30;;;2.95;;
83732;SDS011;73710;49.968;8.338;2024-02-15T06:10:25;4.78;;;2.70;;
83732;SDS011;73710;49.968;8.338;2024-02-15T06:12:50;6.07;;;3.58;;
83732;SDS011;73710;49.968;8.338;2024-02-15T06:15:16;7.47;;;2.80;;
83732;SDS011;73710;49.968;8.338;2024-02-15T06:17:42;4.35;;;2.97;;
83732;SDS011;73710;49.968;8.338;2024-02-15T06:20:12;7.35;;;3.38;;
83732;SDS011;73710;49.968;8.338;2024-02-15T06:22:39;4.45;;;2.78;;
83732;SDS011;73710;49.968;8.338;2024-02-15T06:25:05;5.75;;;3.28;;
83732;SDS011;73710;49.968;8.338;2024-02-15T06:27:31;6.88;;;2.97;;
83732;SDS011;73710;49.968;8.338;2024-02-15T06:29:57;4.93;;;3.10;;
83732;SDS011;73710;49.968;8.338;2024-02-15T06:32:41;4.85;;;2.88;;
83732;SDS011;73710;49.968;8.338;2024-02-15T06:35:25;9.68;;;2.95;;
83732;SDS011;73710;49.968;8.338;2024-02-15T06:38:08;4.30;;;3.00;;
83732;SDS011;73710;49.968;8.338;2024-02-15T06:40:52;5.07;;;2.88;;
83732;SDS011;73710;49.968;8.338;2024-02-15T06:43:19;5.45;;;2.75;;
83732;SDS011;73710;49.968;8.338;2024-02-15T06:45:44;4.88;;;2.72;;
83732;SDS011;73710;49.968;8.338;2024-02-15T06:48:12;4.95;;;2.70;;
83732;SDS011;73710;49.968;8.338;2024-02-15T06:50:37;5.55;;;2.53;;
83732;SDS011;73710;49.968;8.338;2024-02-15T06:53:03;4.78;;;3.13;;
83732;SDS011;73710;49.968;8.338;2024-02-15T06:55:29;5.97;;;3.10;;
83732;SDS011;73710;49.968;8.338;2024-02-15T06:57:55;5.50;;;3.42;;
83732;SDS011;73710;49.968;8.338;2024-02-15T07:00:21;5.63;;;3.40;;
83732;SDS011;73710;49.968;8.338;2024-02-15T07:02:46;6.03;;;2.97;;
83732;SDS011;73710;49.968;8.338;2024-02-15T07:05:14;4.15;;;3.03;;
83732;SDS011;73710;49.968;8.338;2024-02-15T07:07:42;7.07;;;3.00;;
83732;SDS011;73710;49.968;8.338;2024-02-15T07:10:08;9.07;;;3.78;;
83732;SDS011;73710;49.968;8.338;2024-02-15T07:12:34;8.43;;;3.97;;
83732;SDS011;73710;49.968;8.338;2024-02-15T07:14:59;6.97;;;4.00;;
83732;SDS011;73710;49.968;8.338;2024-02-15T07:17:27;6.03;;;3.22;;
83732;SDS011;73710;49.968;8.338;2024-02-15T07:19:53;7.80;;;4.32;;
83732;SDS011;73710;49.968;8.338;2024-02-15T07:22:18;6.17;;;3.50;;
83732;SDS011;73710;49.968;8.338;2024-02-15T07:24:43;7.22;;;4.15;;
83732;SDS011;73710;49.968;8.338;2024-02-15T07:27:09;8.25;;;3.88;;
83732;SDS011;73710;49.968;8.338;2024-02-15T07:29:35;11.60;;;4.40;;
83732;SDS011;73710;49.968;8.338;2024-02-15T07:32:05;4.70;;;3.08;;
83732;SDS011;73710;49.968;8.338;2024-02-15T07:34:31;5.22;;;3.47;;
83732;SDS011;73710;49.968;8.338;2024-02-15T07:36:58;7.95;;;3.83;;
83732;SDS011;73710;49.968;8.338;2024-02-15T07:39:23;6.10;;;3.28;;
83732;SDS011;73710;49.968;8.338;2024-02-15T07:41:50;6.40;;;4.32;;
83732;SDS011;73710;49.968;8.338;2024-02-15T07:44:24;7.97;;;3.72;;
83732;SDS011;73710;49.968;8.338;2024-02-15T07:46:50;6.20;;;4.13;;
83732;SDS011;73710;49.968;8.338;2024-02-15T07:49:16;8.55;;;4.30;;
83732;SDS011;73710;49.968;8.338;2024-02-15T07:51:43;9.05;;;4.35;;
83732;SDS011;73710;49.968;8.338;2024-02-15T07:54:08;7.43;;;3.92;;
83732;SDS011;73710;49.968;8.338;2024-02-15T07:56:34;6.68;;;3.63;;
83732;SDS011;73710;49.968;8.338;2024-02-15T07:59:00;7.32;;;3.92;;
83732;SDS011;73710;49.968;8.338;2024-02-15T08:01:25;6.10;;;4.03;;
83732;SDS011;73710;49.968;8.338;2024-02-15T08:03:51;7.28;;;3.90;;
83732;SDS011;73710;49.968;8.338;2024-02-15T08:06:18;6.43;;;3.47;;
83732;SDS011;73710;49.968;8.338;2024-02-15T08:08:44;5.90;;;3.58;;
83732;SDS011;73710;49.968;8.338;2024-02-15T08:11:11;9.00;;;3.97;;
83732;SDS011;73710;49.968;8.338;2024-02-15T08:13:46;7.55;;;3.53;;
83732;SDS011;73710;49.968;8.338;2024-02-15T08:16:23;6.80;;;3.38;;
83732;SDS011;73710;49.968;8.338;2024-02-15T08:18:49;5.47;;;3.72;;
83732;SDS011;73710;49.968;8.338;2024-02-15T08:21:29;8.88;;;3.97;;
83732;SDS011;73710;49.968;8.338;2024-02-15T08:23:58;4.93;;;3.55;;
83732;SDS011;73710;49.968;8.338;2024-02-15T08:26:24;8.82;;;4.78;;
83732;SDS011;73710;49.968;8.338;2024-02-15T08:28:49;8.40;;;4.55;;
83732;SDS011;73710;49.968;8.338;2024-02-15T08:31:15;8.13;;;4.00;;
83732;SDS011;73710;49.968;8.338;2024-02-15T08:33:40;5.25;;;3.30;;
83732;SDS011;73710;49.968;8.338;2024-02-15T08:36:08;8.40;;;3.50;;
83732;SDS011;73710;49.968;8.338;2024-02-15T08:38:35;6.95;;;3.63;;
83732;SDS011;73710;49.968;8.338;2024-02-15T08:41:02;6.82;;;4.85;;
83732;SDS011;73710;49.968;8.338;2024-02-15T08:43:29;7.72;;;4.50;;
83732;SDS011;73710;49.968;8.338;2024-02-15T08:45:57;15.18;;;7.30;;
83732;SDS011;73710;49.968;8.338;2024-02-15T08:48:23;6.55;;;3.95;;
83732;SDS011;73710;49.968;8.338;2024-02-15T08:50:49;9.82;;;3.53;;
83732;SDS011;73710;49.968;8.338;2024-02-15T08:53:14;7.38;;;3.60;;
83732;SDS011;73710;49.968;8.338;2024-02-15T08:55:40;5.68;;;3.08;;
83732;SDS011;73710;49.968;8.338;2024-02-15T08:58:06;7.65;;;3.90;;
83732;SDS011;73710;49.968;8.338;2024-02-15T09:00:31;8.57;;;3.60;;
83732;SDS011;73710;49.968;8.338;2024-02-15T09:02:57;5.45;;;3.40;;
83732;SDS011;73710;49.968;8.338;2024-02-15T09:05:22;4.93;;;3.30;;
83732;SDS011;73710;49.968;8.338;2024-02-15T09:07:48;5.85;;;3.78;;
83732;SDS011;73710;49.968;8.338;2024-02-15T09:10:15;7.28;;;3.90;;
83732;SDS011;73710;49.968;8.338;2024-02-15T09:12:44;5.75;;;3.67;;
83732;SDS011;73710;49.968;8.338;2024-02-15T09:15:12;8.10;;;3.05;;
83732;SDS011;73710;49.968;8.338;2024-02-15T09:17:38;4.70;;;2.95;;
83732;SDS011;73710;49.968;8.338;2024-02-15T09:20:07;5.80;;;3.22;;
83732;SDS011;73710;49.968;8.338;2024-02-15T09:22:43;5.13;;;2.40;;
83732;SDS011;73710;49.968;8.338;2024-02-15T09:25:13;8.48;;;2.90;;
83732;SDS011;73710;49.968;8.338;2024-02-15T09:27:39;5.32;;;3.35;;
83732;SDS011;73710;49.968;8.338;2024-02-15T09:30:05;3.72;;;2.90;;
83732;SDS011;73710;49.968;8.338;2024-02-15T09:32:35;5.35;;;2.80;;
83732;SDS011;73710;49.968;8.338;2024-02-15T09:35:01;6.53;;;3.00;;
83732;SDS011;73710;49.968;8.338;2024-02-15T09:37:26;4.88;;;3.10;;
83732;SDS011;73710;49.968;8.338;2024-02-15T09:39:53;5.35;;;3.13;;
83732;SDS011;73710;49.968;8.338;2024-02-15T09:42:20;5.43;;;2.88;;
83732;SDS011;73710;49.968;8.338;2024-02-15T09:44:46;3.92;;;2.40;;
83732;SDS011;73710;49.968;8.338;2024-02-15T09:47:12;4.88;;;2.55;;
83732;SDS011;73710;49.968;8.338;2024-02-15T09:49:38;3.53;;;2.40;;
83732;SDS011;73710;49.968;8.338;2024-02-15T09:52:07;6.82;;;3.08;;
83732;SDS011;73710;49.968;8.338;2024-02-15T09:54:39;6.90;;;3.15;;
83732;SDS011;73710;49.968;8.338;2024-02-15T09:57:08;6.78;;;2.50;;
83732;SDS011;73710;49.968;8.338;2024-02-15T09:59:35;3.80;;;2.65;;
83732;SDS011;73710;49.968;8.338;2024-02-15T10:02:01;4.28;;;2.28;;
83732;SDS011;73710;49.968;8.338;2024-02-15T10:04:27;7.40;;;3.03;;
83732;SDS011;73710;49.968;8.338;2024-02-15T10:06:53;4.22;;;2.65;;
83732;SDS011;73710;49.968;8.338;2024-02-15T10:09:25;4.63;;;2.40;;
83732;SDS011;73710;49.968;8.338;2024-02-15T10:11:58;5.15;;;2.45;;
83732;SDS011;73710;49.968;8.338;2024-02-15T10:14:25;4.38;;;2.58;;
83732;SDS011;73710;49.968;8.338;2024-02-15T10:16:52;4.72;;;2.40;;
83732;SDS011;73710;49.968;8.338;2024-02-15T10:19:19;3.10;;;2.17;;
83732;SDS011;73710;49.968;8.338;2024-02-15T10:24:17;7.07;;;4.35;;
83732;SDS011;73710;49.968;8.338;2024-02-15T10:26:44;9.15;;;5.00;;
83732;SDS011;73710;49.968;8.338;2024-02-15T10:29:13;6.68;;;3.72;;
83732;SDS011;73710;49.968;8.338;2024-02-15T10:31:51;5.45;;;2.75;;
83732;SDS011;73710;49.968;8.338;2024-02-15T10:34:21;15.43;;;8.20;;
83732;SDS011;73710;49.968;8.338;2024-02-15T10:36:47;6.55;;;3.45;;
83732;SDS011;73710;49.968;8.338;2024-02-15T10:39:13;5.18;;;2.45;;
83732;SDS011;73710;49.968;8.338;2024-02-15T10:41:47;3.33;;;1.98;;
83732;SDS011;73710;49.968;8.338;2024-02-15T10:44:15;4.78;;;2.25;;
83732;SDS011;73710;49.968;8.338;2024-02-15T10:46:43;3.78;;;2.20;;
83732;SDS011;73710;49.968;8.338;2024-02-15T10:49:11;5.55;;;2.40;;
83732;SDS011;73710;49.968;8.338;2024-02-15T10:51:36;3.53;;;2.70;;
83732;SDS011;73710;49.968;8.338;2024-02-15T10:54:08;3.67;;;2.63;;
83732;SDS011;73710;49.968;8.338;2024-02-15T10:56:38;7.38;;;2.83;;
83732;SDS011;73710;49.968;8.338;2024-02-15T11:01:45;7.72;;;2.55;;
83732;SDS011;73710;49.968;8.338;2024-02-15T11:04:15;5.25;;;2.50;;
83732;SDS011;73710;49.968;8.338;2024-02-15T11:06:47;5.43;;;2.10;;
83732;SDS011;73710;49.968;8.338;2024-02-15T11:09:15;4.35;;;2.20;;
83732;SDS011;73710;49.968;8.338;2024-02-15T11:11:41;6.18;;;2.13;;
83732;SDS011;73710;49.968;8.338;2024-02-15T11:14:27;4.45;;;2.28;;
83732;SDS011;73710;49.968;8.338;2024-02-15T11:16:57;3.47;;;2.00;;
83732;SDS011;73710;49.968;8.338;2024-02-15T11:22:01;5.53;;;2.10;;
83732;SDS011;73710;49.968;8.338;2024-02-15T11:24:34;5.60;;;2.08;;
83732;SDS011;73710;49.968;8.338;2024-02-15T11:27:04;4.70;;;2.35;;
83732;SDS011;73710;49.968;8.338;2024-02-15T11:29:51;5.70;;;2.17;;
83732;SDS011;73710;49.968;8.338;2024-02-15T11:40:22;6.20;;;2.03;;
83732;SDS011;73710;49.968;8.338;2024-02-15T11:42:59;2.72;;;1.70;;
83732;SDS011;73710;49.968;8.338;2024-02-15T11:45:25;7.05;;;3.28;;
83732;SDS011;73710;49.968;8.338;2024-02-15T11:47:57;5.22;;;2.10;;
83732;SDS011;73710;49.968;8.338;2024-02-15T11:50:23;4.65;;;2.03;;
83732;SDS011;73710;49.968;8.338;2024-02-15T11:52:50;8.10;;;2.05;;
83732;SDS011;73710;49.968;8.338;2024-02-15T11:55:20;2.88;;;1.92;;
83732;SDS011;73710;49.968;8.338;2024-02-15T11:57:59;2.90;;;1.90;;
83732;SDS011;73710;49.968;8.338;2024-02-15T12:00:38;2.60;;;1.58;;
83732;SDS011;73710;49.968;8.338;2024-02-15T12:03:23;4.30;;;1.75;;
83732;SDS011;73710;49.968;8.338;2024-02-15T12:06:07;1.95;;;1.38;;
83732;SDS011;73710;49.968;8.338;2024-02-15T12:08:52;5.70;;;1.80;;
83732;SDS011;73710;49.968;8.338;2024-02-15T12:11:37;4.35;;;1.48;;
83732;SDS011;73710;49.968;8.338;2024-02-15T12:14:22;4.05;;;2.20;;
83732;SDS011;73710;49.968;8.338;2024-02-15T12:17:07;2.85;;;1.17;;
83732;SDS011;73710;49.968;8.338;2024-02-15T12:19:53;3.28;;;1.45;;
83732;SDS011;73710;49.968;8.338;2024-02-15T12:22:25;3.60;;;1.90;;
83732;SDS011;73710;49.968;8.338;2024-02-15T12:25:06;2.35;;;1.45;;
83732;SDS011;73710;49.968;8.338;2024-02-15T12:27:39;2.00;;;1.35;;
83732;SDS011;73710;49.968;8.338;2024-02-15T12:30:05;1.80;;;1.58;;
83732;SDS011;73710;49.968;8.338;2024-02-15T12:32:32;5.45;;;1.35;;
83732;SDS011;73710;49.968;8.338;2024-02-15T12:35:16;1.42;;;0.93;;
83732;SDS011;73710;49.968;8.338;2024-02-15T12:37:44;2.72;;;1.13;;
83732;SDS011;73710;49.968;8.338;2024-02-15T12:40:30;1.52;;;1.00;;
83732;SDS011;73710;49.968;8.338;2024-02-15T12:42:56;3.30;;;1.23;;
83732;SDS011;73710;49.968;8.338;2024-02-15T12:45:22;2.90;;;1.08;;
83732;SDS011;73710;49.968;8.338;2024-02-15T12:47:54;6.60;;;1.27;;
83732;SDS011;73710;49.968;8.338;2024-02-15T12:50:21;1.67;;;1.17;;
83732;SDS011;73710;49.968;8.338;2024-02-15T12:52:56;1.60;;;1.02;;
83732;SDS011;73710;49.968;8.338;2024-02-15T12:55:31;2.10;;;1.20;;
83732;SDS011;73710;49.968;8.338;2024-02-15T12:57:59;2.60;;;0.95;;
83732;SDS011;73710;49.968;8.338;2024-02-15T13:00:29;4.40;;;1.63;;
83732;SDS011;73710;49.968;8.338;2024-02-15T13:03:01;2.55;;;0.93;;
83732;SDS011;73710;49.968;8.338;2024-02-15T13:05:28;2.08;;;0.82;;
83732;SDS011;73710;49.968;8.338;2024-02-15T13:07:56;2.53;;;1.50;;
83732;SDS011;73710;49.968;8.338;2024-02-15T13:10:30;6.43;;;1.10;;
83732;SDS011;73710;49.968;8.338;2024-02-15T13:12:56;3.28;;;0.77;;
83732;SDS011;73710;49.968;8.338;2024-02-15T13:15:24;1.40;;;0.70;;
83732;SDS011;73710;49.968;8.338;2024-02-15T13:17:57;2.63;;;1.10;;
83732;SDS011;73710;49.968;8.338;2024-02-15T13:20:23;1.70;;;1.10;;
83732;SDS011;73710;49.968;8.338;2024-02-15T13:22:57;2.42;;;0.90;;
83732;SDS011;73710;49.968;8.338;2024-02-15T13:25:26;1.80;;;0.98;;
83732;SDS011;73710;49.968;8.338;2024-02-15T13:27:53;1.80;;;0.90;;
83732;SDS011;73710;49.968;8.338;2024-02-15T13:30:18;7.10;;;0.93;;
83732;SDS011;73710;49.968;8.338;2024-02-15T13:32:48;3.45;;;0.75;;
83732;SDS011;73710;49.968;8.338;2024-02-15T13:35:15;1.33;;;0.60;;
83732;SDS011;73710;49.968;8.338;2024-02-15T13:37:46;2.25;;;1.08;;
83732;SDS011;73710;49.968;8.338;2024-02-15T13:40:12;3.72;;;1.00;;
83732;SDS011;73710;49.968;8.338;2024-02-15T13:42:46;3.03;;;0.95;;
83732;SDS011;73710;49.968;8.338;2024-02-15T13:45:23;1.13;;;0.40;;
83732;SDS011;73710;49.968;8.338;2024-02-15T13:48:09;5.05;;;0.98;;
83732;SDS011;73710;49.968;8.338;2024-02-15T13:50:38;4.20;;;0.75;;
83732;SDS011;73710;49.968;8.338;2024-02-15T13:53:05;1.48;;;0.70;;
83732;SDS011;73710;49.968;8.338;2024-02-15T13:55:30;3.80;;;1.15;;
83732;SDS011;73710;49.968;8.338;2024-02-15T13:57:56;0.65;;;0.35;;
83732;SDS011;73710;49.968;8.338;2024-02-15T14:00:22;3.45;;;0.80;;
83732;SDS011;73710;49.968;8.338;2024-02-15T14:05:14;1.55;;;0.70;;
83732;SDS011;73710;49.968;8.338;2024-02-15T14:07:42;4.95;;;0.88;;
83732;SDS011;73710;49.968;8.338;2024-02-15T14:10:08;1.20;;;0.55;;
83732;SDS011;73710;49.968;8.338;2024-02-15T14:12:34;2.35;;;0.75;;
83732;SDS011;73710;49.968;8.338;2024-02-15T14:15:00;3.28;;;0.82;;
83732;SDS011;73710;49.968;8.338;2024-02-15T14:17:26;3.08;;;0.63;;
83732;SDS011;73710;49.968;8.338;2024-02-15T14:19:53;1.20;;;0.50;;
83732;SDS011;73710;49.968;8.338;2024-02-15T14:22:18;2.72;;;0.80;;
83732;SDS011;73710;49.968;8.338;2024-02-15T14:24:44;2.28;;;0.85;;
83732;SDS011;73710;49.968;8.338;2024-02-15T14:27:10;1.38;;;0.50;;
83732;SDS011;73710;49.968;8.338;2024-02-15T14:29:39;1.52;;;0.65;;
83732;SDS011;73710;49.968;8.338;2024-02-15T14:32:24;1.23;;;0.47;;
83732;SDS011;73710;49.968;8.338;2024-02-15T14:35:08;1.30;;;0.60;;
83732;SDS011;73710;49.968;8.338;2024-02-15T14:37:33;5.63;;;0.73;;
83732;SDS011;73710;49.968;8.338;2024-02-15T14:39:59;3.97;;;0.60;;
83732;SDS011;73710;49.968;8.338;2024-02-15T14:42:24;1.63;;;0.85;;
83732;SDS011;73710;49.968;8.338;2024-02-15T14:44:49;8.03;;;1.27;;
83732;SDS011;73710;49.968;8.338;2024-02-15T14:47:15;2.50;;;0.70;;
83732;SDS011;73710;49.968;8.338;2024-02-15T14:49:40;2.63;;;0.63;;
83732;SDS011;73710;49.968;8.338;2024-02-15T14:52:06;5.70;;;0.95;;
83732;SDS011;73710;49.968;8.338;2024-02-15T14:54:31;2.30;;;0.82;;
83732;SDS011;73710;49.968;8.338;2024-02-15T14:56:58;0.73;;;0.50;;
83732;SDS011;73710;49.968;8.338;2024-02-15T14:59:24;3.95;;;0.90;;
83732;SDS011;73710;49.968;8.338;2024-02-15T15:01:50;2.35;;;0.70;;
83732;SDS011;73710;49.968;8.338;2024-02-15T15:04:15;1.92;;;1.08;;
83732;SDS011;73710;49.968;8.338;2024-02-15T15:06:44;4.05;;;0.95;;
83732;SDS011;73710;49.968;8.338;2024-02-15T15:09:28;2.22;;;0.80;;
83732;SDS011;73710;49.968;8.338;2024-02-15T15:12:12;2.10;;;0.98;;
83732;SDS011;73710;49.968;8.338;2024-02-15T15:14:55;2.30;;;0.80;;
83732;SDS011;73710;49.968;8.338;2024-02-15T15:17:21;3.47;;;0.88;;
83732;SDS011;73710;49.968;8.338;2024-02-15T15:19:46;3.33;;;0.98;;
83732;SDS011;73710;49.968;8.338;2024-02-15T15:22:12;3.10;;;1.40;;
83732;SDS011;73710;49.968;8.338;2024-02-15T15:24:37;4.73;;;1.40;;
83732;SDS011;73710;49.968;8.338;2024-02-15T15:27:02;5.28;;;2.05;;
83732;SDS011;73710;49.968;8.338;2024-02-15T15:29:30;3.80;;;1.80;;
83732;SDS011;73710;49.968;8.338;2024-02-15T15:31:55;3.80;;;1.27;;
83732;SDS011;73710;49.968;8.338;2024-02-15T15:34:22;4.32;;;1.10;;
83732;SDS011;73710;49.968;8.338;2024-02-15T15:36:48;3.45;;;1.70;;
83732;SDS011;73710;49.968;8.338;2024-02-15T15:39:13;2.78;;;1.13;;
83732;SDS011;73710;49.968;8.338;2024-02-15T15:41:43;4.32;;;1.10;;
83732;SDS011;73710;49.968;8.338;2024-02-15T15:44:09;2.22;;;1.10;;
83732;SDS011;73710;49.968;8.338;2024-02-15T15:46:35;3.92;;;1.38;;
83732;SDS011;73710;49.968;8.338;2024-02-15T15:49:01;2.50;;;1.02;;
83732;SDS011;73710;49.968;8.338;2024-02-15T15:51:26;2.42;;;0.98;;
83732;SDS011;73710;49.968;8.338;2024-02-15T15:53:52;2.78;;;0.98;;
83732;SDS011;73710;49.968;8.338;2024-02-15T15:56:19;1.65;;;0.95;;
83732;SDS011;73710;49.968;8.338;2024-02-15T15:58:47;1.33;;;0.82;;
83732;SDS011;73710;49.968;8.338;2024-02-15T16:01:14;2.90;;;1.00;;
83732;SDS011;73710;49.968;8.338;2024-02-15T16:03:39;2.65;;;0.80;;
83732;SDS011;73710;49.968;8.338;2024-02-15T16:06:05;3.35;;;1.20;;
83732;SDS011;73710;49.968;8.338;2024-02-15T16:08:30;2.75;;;0.98;;
83732;SDS011;73710;49.968;8.338;2024-02-15T16:10:56;3.70;;;1.40;;
83732;SDS011;73710;49.968;8.338;2024-02-15T16:13:23;2.78;;;0.85;;
83732;SDS011;73710;49.968;8.338;2024-02-15T16:15:53;3.50;;;1.60;;
83732;SDS011;73710;49.968;8.338;2024-02-15T16:18:19;4.07;;;1.27;;
83732;SDS011;73710;49.968;8.338;2024-02-15T16:20:46;4.25;;;1.95;;
83732;SDS011;73710;49.968;8.338;2024-02-15T16:23:12;5.95;;;2.05;;
83732;SDS011;73710;49.968;8.338;2024-02-15T16:25:38;3.85;;;2.03;;
83732;SDS011;73710;49.968;8.338;2024-02-15T16:28:04;4.88;;;1.63;;
83732;SDS011;73710;49.968;8.338;2024-02-15T16:30:32;2.38;;;1.30;;
83732;SDS011;73710;49.968;8.338;2024-02-15T16:32:59;2.17;;;1.02;;
83732;SDS011;73710;49.968;8.338;2024-02-15T16:35:25;9.25;;;1.25;;
83732;SDS011;73710;49.968;8.338;2024-02-15T16:37:51;3.33;;;1.20;;
83732;SDS011;73710;49.968;8.338;2024-02-15T16:40:17;2.70;;;1.33;;
83732;SDS011;73710;49.968;8.338;2024-02-15T16:42:43;3.08;;;1.08;;
83732;SDS011;73710;49.968;8.338;2024-02-15T16:45:12;2.28;;;1.25;;
83732;SDS011;73710;49.968;8.338;2024-02-15T16:47:38;2.67;;;1.10;;
83732;SDS011;73710;49.968;8.338;2024-02-15T16:50:04;2.15;;;0.88;;
83732;SDS011;73710;49.968;8.338;2024-02-15T16:52:35;4.93;;;1.40;;
83732;SDS011;73710;49.968;8.338;2024-02-15T16:55:05;4.40;;;0.90;;
83732;SDS011;73710;49.968;8.338;2024-02-15T16:57:34;2.45;;;0.80;;
83732;SDS011;73710;49.968;8.338;2024-02-15T17:00:01;2.55;;;1.00;;
83732;SDS011;73710;49.968;8.338;2024-02-15T17:02:30;3.00;;;1.13;;
83732;SDS011;73710;49.968;8.338;2024-02-15T17:05:00;3.80;;;1.10;;
83732;SDS011;73710;49.968;8.338;2024-02-15T17:07:26;7.07;;;1.10;;
83732;SDS011;73710;49.968;8.338;2024-02-15T17:09:52;3.30;;;1.33;;
83732;SDS011;73710;49.968;8.338;2024-02-15T17:12:18;2.45;;;0.90;;
83732;SDS011;73710;49.968;8.338;2024-02-15T17:14:44;1.80;;;0.80;;
83732;SDS011;73710;49.968;8.338;2024-02-15T17:17:09;8.57;;;0.98;;
83732;SDS011;73710;49.968;8.338;2024-02-15T17:19:34;3.17;;;1.50;;
83732;SDS011;73710;49.968;8.338;2024-02-15T17:22:00;2.45;;;1.02;;
83732;SDS011;73710;49.968;8.338;2024-02-15T17:24:26;2.88;;;1.13;;
83732;SDS011;73710;49.968;8.338;2024-02-15T17:26:52;4.90;;;1.60;;
83732;SDS011;73710;49.968;8.338;2024-02-15T17:29:17;2.65;;;1.23;;
83732;SDS011;73710;49.968;8.338;2024-02-15T17:31:43;2.80;;;1.30;;
83732;SDS011;73710;49.968;8.338;2024-02-15T17:34:08;4.57;;;1.05;;
83732;SDS011;73710;49.968;8.338;2024-02-15T17:36:39;7.25;;;1.55;;
83732;SDS011;73710;49.968;8.338;2024-02-15T17:39:04;4.45;;;1.92;;
83732;SDS011;73710;49.968;8.338;2024-02-15T17:41:30;6.45;;;2.13;;
83732;SDS011;73710;49.968;8.338;2024-02-15T17:43:57;4.03;;;1.40;;
83732;SDS011;73710;49.968;8.338;2024-02-15T17:46:25;6.70;;;1.70;;
83732;SDS011;73710;49.968;8.338;2024-02-15T17:48:52;2.83;;;1.83;;
83732;SDS011;73710;49.968;8.338;2024-02-15T17:51:18;5.47;;;1.92;;
83732;SDS011;73710;49.968;8.338;2024-02-15T17:53:44;7.75;;;3.53;;
83732;SDS011;73710;49.968;8.338;2024-02-15T17:56:09;10.30;;;3.40;;
83732;SDS011;73710;49.968;8.338;2024-02-15T17:58:39;8.63;;;3.38;;
83732;SDS011;73710;49.968;8.338;2024-02-15T18:01:08;6.15;;;3.38;;
83732;SDS011;73710;49.968;8.338;2024-02-15T18:03:33;13.60;;;3.80;;
83732;SDS011;73710;49.968;8.338;2024-02-15T18:05:59;8.20;;;3.30;;
83732;SDS011;73710;49.968;8.338;2024-02-15T18:08:24;9.45;;;3.22;;
83732;SDS011;73710;49.968;8.338;2024-02-15T18:10:52;5.88;;;3.15;;
83732;SDS011;73710;49.968;8.338;2024-02-15T18:13:21;13.35;;;3.60;;
83732;SDS011;73710;49.968;8.338;2024-02-15T18:15:46;6.35;;;2.63;;
83732;SDS011;73710;49.968;8.338;2024-02-15T18:18:14;5.70;;;2.85;;
83732;SDS011;73710;49.968;8.338;2024-02-15T18:20:40;6.82;;;2.63;;
83732;SDS011;73710;49.968;8.338;2024-02-15T18:23:06;4.55;;;1.30;;
83732;SDS011;73710;49.968;8.338;2024-02-15T18:25:34;4.57;;;1.50;;
83732;SDS011;73710;49.968;8.338;2024-02-15T18:28:00;2.17;;;1.25;;
83732;SDS011;73710;49.968;8.338;2024-02-15T18:30:26;3.88;;;1.67;;
83732;SDS011;73710;49.968;8.338;2024-02-15T18:32:58;3.72;;;1.80;;
83732;SDS011;73710;49.968;8.338;2024-02-15T18:35:24;4.75;;;2.40;;
83732;SDS011;73710;49.968;8.338;2024-02-15T18:37:49;5.47;;;1.75;;
83732;SDS011;73710;49.968;8.338;2024-02-15T18:40:15;5.40;;;2.63;;
83732;SDS011;73710;49.968;8.338;2024-02-15T18:42:40;5.07;;;2.03;;
83732;SDS011;73710;49.968;8.338;2024-02-15T18:45:07;5.05;;;2.05;;
83732;SDS011;73710;49.968;8.338;2024-02-15T18:47:33;4.88;;;1.85;;
83732;SDS011;73710;49.968;8.338;2024-02-15T18:50:01;3.95;;;2.40;;
83732;SDS011;73710;49.968;8.338;2024-02-15T18:52:28;4.25;;;2.20;;
83732;SDS011;73710;49.968;8.338;2024-02-15T18:54:53;4.65;;;2.88;;
83732;SDS011;73710;49.968;8.338;2024-02-15T18:57:25;7.63;;;2.72;;
83732;SDS011;73710;49.968;8.338;2024-02-15T18:59:52;5.68;;;3.47;;
83732;SDS011;73710;49.968;8.338;2024-02-15T19:02:18;6.47;;;3.42;;
83732;SDS011;73710;49.968;8.338;2024-02-15T19:04:44;4.30;;;2.80;;
83732;SDS011;73710;49.968;8.338;2024-02-15T19:07:13;6.63;;;3.30;;
83732;SDS011;73710;49.968;8.338;2024-02-15T19:09:39;5.57;;;2.85;;
83732;SDS011;73710;49.968;8.338;2024-02-15T19:12:04;8.73;;;2.85;;
83732;SDS011;73710;49.968;8.338;2024-02-15T19:14:35;6.28;;;2.97;;
83732;SDS011;73710;49.968;8.338;2024-02-15T19:17:00;6.25;;;3.13;;
83732;SDS011;73710;49.968;8.338;2024-02-15T19:19:25;5.85;;;2.92;;
83732;SDS011;73710;49.968;8.338;2024-02-15T19:21:51;5.70;;;3.08;;
83732;SDS011;73710;49.968;8.338;2024-02-15T19:24:18;8.35;;;3.40;;
83732;SDS011;73710;49.968;8.338;2024-02-15T19:26:44;11.55;;;3.42;;
83732;SDS011;73710;49.968;8.338;2024-02-15T19:29:10;4.78;;;2.85;;
83732;SDS011;73710;49.968;8.338;2024-02-15T19:31:37;3.75;;;2.45;;
83732;SDS011;73710;49.968;8.338;2024-02-15T19:34:06;4.50;;;3.10;;
83732;SDS011;73710;49.968;8.338;2024-02-15T19:36:32;4.32;;;2.58;;
83732;SDS011;73710;49.968;8.338;2024-02-15T19:39:01;5.25;;;2.88;;
83732;SDS011;73710;49.968;8.338;2024-02-15T19:41:35;11.13;;;3.55;;
83732;SDS011;73710;49.968;8.338;2024-02-15T19:44:01;13.75;;;3.00;;
83732;SDS011;73710;49.968;8.338;2024-02-15T19:46:34;7.15;;;2.97;;
83732;SDS011;73710;49.968;8.338;2024-02-15T19:49:05;5.38;;;2.58;;
83732;SDS011;73710;49.968;8.338;2024-02-15T19:51:31;7.82;;;3.38;;
83732;SDS011;73710;49.968;8.338;2024-02-15T19:53:57;4.33;;;3.13;;
83732;SDS011;73710;49.968;8.338;2024-02-15T19:56:22;10.43;;;2.90;;
83732;SDS011;73710;49.968;8.338;2024-02-15T19:58:49;6.43;;;2.72;;
83732;SDS011;73710;49.968;8.338;2024-02-15T20:01:15;5.85;;;3.45;;
83732;SDS011;73710;49.968;8.338;2024-02-15T20:03:42;8.73;;;3.50;;
83732;SDS011;73710;49.968;8.338;2024-02-15T20:06:13;6.57;;;3.15;;
83732;SDS011;73710;49.968;8.338;2024-02-15T20:08:39;6.45;;;3.83;;
83732;SDS011;73710;49.968;8.338;2024-02-15T20:11:07;10.68;;;3.80;;
83732;SDS011;73710;49.968;8.338;2024-02-15T20:13:36;8.95;;;3.88;;
83732;SDS011;73710;49.968;8.338;2024-02-15T20:16:01;8.25;;;3.83;;
83732;SDS011;73710;49.968;8.338;2024-02-15T20:18:32;12.90;;;5.25;;